Time;durP1;ratioP1;P1;durP2;ratioP2;P2;SDS_P1;SDS_P2;PMS_P1;PMS_P2;Temp;Humidity;BMP_temperature;BMP_pressure;BME280_temperature;BME280_humidity;BME280_pressure;Samples;Min_cycle;Max_cycle;Signal;HPM_P1;HPM_P2
2023/05/07 00:01:49;;;;;;;50.33;37.67;;;;;;;18.19;50.76;93379.88;5045553;28;20407;-85
2023/05/07 00:04:14;;;;;;;43.78;33.40;;;;;;;18.18;50.96;93386.63;5044206;28;20046;-85
2023/05/07 00:06:40;;;;;;;48.33;35.50;;;;;;;18.21;50.46;93387.59;5028035;28;20123;-85
2023/05/07 00:09:06;;;;;;;49.55;37.00;;;;;;;18.20;50.70;93383.38;5025769;28;20033;-84
2023/05/07 00:11:31;;;;;;;46.38;33.10;;;;;;;18.20;50.65;93383.38;5044019;28;20405;-85
2023/05/07 00:13:57;;;;;;;50.45;32.70;;;;;;;18.21;50.69;93393.06;5012642;28;20304;-86
2023/05/07 00:16:22;;;;;;;50.70;35.35;;;;;;;18.20;50.72;93383.38;5005859;28;20110;-85
2023/05/07 00:18:47;;;;;;;40.72;30.52;;;;;;;18.23;50.79;93390.56;5026999;28;20038;-85
2023/05/07 00:21:13;;;;;;;45.97;33.05;;;;;;;18.21;50.89;93396.53;5040872;28;20049;-85
2023/05/07 00:23:39;;;;;;;44.67;31.83;;;;;;;18.21;50.97;93398.53;5047415;28;20044;-84
2023/05/07 00:26:04;;;;;;;42.13;31.33;;;;;;;18.19;50.66;93379.88;5046417;28;20043;-85
2023/05/07 00:28:30;;;;;;;39.90;30.88;;;;;;;18.17;50.91;93393.34;5042366;28;20488;-84
2023/05/07 00:30:55;;;;;;;39.95;32.00;;;;;;;18.19;50.97;93392.84;5027634;28;20341;-85
2023/05/07 00:33:22;;;;;;;51.22;33.35;;;;;;;18.18;50.79;93396.84;5027257;28;20048;-84
2023/05/07 00:35:47;;;;;;;40.78;30.48;;;;;;;18.19;50.85;93392.84;4975602;28;20053;-85
2023/05/07 00:38:13;;;;;;;41.80;29.60;;;;;;;18.19;51.09;93406.53;5009179;28;20042;-85
2023/05/07 00:40:39;;;;;;;38.17;27.38;;;;;;;18.18;50.70;93391.38;5027673;28;20037;-86
2023/05/07 00:43:04;;;;;;;40.45;30.67;;;;;;;18.18;50.91;93396.84;5027576;28;20038;-84
2023/05/07 00:45:30;;;;;;;43.88;30.35;;;;;;;18.19;50.96;93404.50;5025009;28;20124;-85
2023/05/07 00:47:55;;;;;;;37.95;28.05;;;;;;;18.19;51.00;93401.06;5026708;28;20404;-85
2023/05/07 00:50:22;;;;;;;308.35;269.58;;;;;;;18.21;50.61;93395.78;5020892;28;20025;-86
2023/05/07 00:52:47;;;;;;;53.22;38.53;;;;;;;18.25;51.06;93401.75;5034379;28;20033;-85
2023/05/07 00:55:14;;;;;;;45.28;31.55;;;;;;;18.26;50.71;93403.22;5025718;28;20046;-84
2023/05/07 00:57:40;;;;;;;42.35;32.25;;;;;;;18.24;50.55;93405.72;5030024;28;20040;-84
2023/05/07 01:00:07;;;;;;;42.45;29.27;;;;;;;18.25;50.80;93401.75;5020268;28;20056;-85
2023/05/07 01:02:33;;;;;;;79.80;64.30;;;;;;;18.25;50.49;93404.47;5028177;28;20032;-84
2023/05/07 01:04:58;;;;;;;154.23;109.38;;;;;;;18.19;50.86;93404.50;5025647;28;20041;-85
2023/05/07 01:07:23;;;;;;;75.80;56.35;;;;;;;18.22;50.62;93411.72;5025194;28;20045;-83
2023/05/07 01:09:49;;;;;;;51.80;36.38;;;;;;;18.18;50.72;93410.53;5008881;28;20037;-85
2023/05/07 01:12:14;;;;;;;45.85;31.75;;;;;;;18.17;50.64;93412.50;5009170;28;20571;-84
2023/05/07 01:14:40;;;;;;;39.67;27.83;;;;;;;18.20;50.65;93411.47;4977361;28;20121;-85
2023/05/07 01:17:06;;;;;;;39.17;28.23;;;;;;;18.19;50.95;93409.97;5007701;28;20042;-85
2023/05/07 01:19:31;;;;;;;37.85;27.45;;;;;;;18.16;51.09;93411.03;4975621;28;20049;-84
2023/05/07 01:22:02;;;;;;;38.38;28.70;;;;;;;18.13;50.70;93406.56;4992153;28;20038;-84
2023/05/07 01:24:28;;;;;;;35.97;27.42;;;;;;;18.15;50.92;93406.81;5006477;28;20107;-85
2023/05/07 01:26:53;;;;;;;40.10;29.25;;;;;;;18.15;50.65;93407.53;5027947;28;20350;-85
2023/05/07 01:29:19;;;;;;;39.17;27.52;;;;;;;18.17;51.07;93406.28;5003306;28;20582;-85
2023/05/07 01:31:44;;;;;;;35.03;26.02;;;;;;;18.14;50.80;93414.28;5007752;28;20374;-85
2023/05/07 01:34:09;;;;;;;34.75;26.52;;;;;;;18.14;51.01;93411.53;4974684;28;20056;-85
2023/05/07 01:36:35;;;;;;;32.90;24.02;;;;;;;18.16;51.08;93400.09;4991937;28;20496;-85
2023/05/07 01:39:00;;;;;;;35.80;26.17;;;;;;;18.16;50.82;93405.56;4991564;28;20423;-85
2023/05/07 01:41:26;;;;;;;36.40;26.20;;;;;;;18.15;50.75;93404.06;4973146;28;20038;-85
2023/05/07 01:43:52;;;;;;;35.03;26.20;;;;;;;18.15;50.68;93409.53;5036671;28;20033;-84
2023/05/07 01:46:17;;;;;;;32.40;26.25;;;;;;;18.15;50.62;93407.53;5048169;28;20045;-85
2023/05/07 01:48:45;;;;;;;34.22;25.42;;;;;;;18.13;50.83;93407.31;5032388;28;20542;-85
2023/05/07 01:51:11;;;;;;;38.13;26.23;;;;;;;18.14;51.03;93408.06;5031457;28;20094;-85
2023/05/07 01:53:37;;;;;;;38.53;24.20;;;;;;;18.14;51.01;93414.28;5031442;28;20053;-85
2023/05/07 01:56:03;;;;;;;32.53;24.95;;;;;;;18.14;50.65;93406.06;5042043;28;20514;-85
2023/05/07 01:58:28;;;;;;;35.90;26.45;;;;;;;18.13;50.56;93412.03;5029185;28;20507;-84
2023/05/07 02:00:53;;;;;;;32.63;25.30;;;;;;;18.13;50.92;93403.84;5027935;28;20034;-85
2023/05/07 02:03:20;;;;;;;33.95;25.65;;;;;;;18.14;50.66;93403.31;5028079;28;20037;-85
2023/05/07 02:05:45;;;;;;;32.40;24.90;;;;;;;18.13;50.95;93404.56;5030017;28;20048;-85
2023/05/07 02:08:10;;;;;;;34.88;25.15;;;;;;;18.12;50.89;93403.09;5029250;28;20037;-85
2023/05/07 02:10:36;;;;;;;33.83;24.73;;;;;;;18.13;51.09;93401.84;5012268;28;20599;-85
2023/05/07 02:13:01;;;;;;;41.92;26.63;;;;;;;18.13;50.96;93403.84;5036998;28;20045;-85
2023/05/07 02:15:27;;;;;;;35.28;25.05;;;;;;;18.13;50.81;93403.84;5027704;28;20507;-85
2023/05/07 02:18:06;;;;;;;40.10;28.48;;;;;;;18.14;50.49;93397.09;5028085;28;20508;-85
2023/05/07 02:20:31;;;;;;;33.70;25.17;;;;;;;18.14;50.50;93406.06;5027824;28;20048;-85
2023/05/07 02:22:57;;;;;;;36.30;25.90;;;;;;;18.12;50.93;93405.81;5029258;28;20033;-84
2023/05/07 02:25:22;;;;;;;30.95;23.00;;;;;;;18.10;50.74;93402.09;5026556;28;20064;-85
2023/05/07 02:27:48;;;;;;;30.88;22.80;;;;;;;18.14;50.85;93394.38;5028710;28;20476;-85
2023/05/07 02:30:13;;;;;;;31.33;23.08;;;;;;;18.12;50.73;93400.34;5028395;28;20041;-85
2023/05/07 02:32:39;;;;;;;29.05;22.42;;;;;;;18.12;50.64;93405.81;5015677;28;20470;-85
2023/05/07 02:35:05;;;;;;;26.98;21.60;;;;;;;18.11;50.69;93401.59;5049205;28;20679;-86
2023/05/07 02:37:31;;;;;;;31.27;23.58;;;;;;;18.09;50.79;93404.09;5048843;28;20041;-85
2023/05/07 02:39:56;;;;;;;32.75;23.85;;;;;;;18.10;50.70;93400.13;5032338;28;20029;-83
2023/05/07 02:42:21;;;;;;;38.97;28.40;;;;;;;18.10;50.91;93400.13;5036278;28;20897;-85
2023/05/07 02:44:47;;;;;;;33.95;27.15;;;;;;;18.13;50.90;93398.34;5038597;28;20119;-85
2023/05/07 02:47:14;;;;;;;29.77;23.17;;;;;;;18.10;51.15;93405.59;5047381;28;20037;-85
2023/05/07 02:49:39;;;;;;;36.65;26.38;;;;;;;18.09;50.90;93403.34;5031071;28;20033;-85
2023/05/07 02:52:05;;;;;;;36.08;28.02;;;;;;;18.07;50.57;93401.13;5040295;28;20076;-85
2023/05/07 02:54:31;;;;;;;46.15;29.25;;;;;;;18.00;50.83;93392.72;5034954;28;20063;-85
2023/05/07 02:56:56;;;;;;;41.20;25.42;;;;;;;18.02;51.03;93393.69;5034368;28;20030;-85
2023/05/07 02:59:22;;;;;;;28.40;21.00;;;;;;;18.09;50.91;93393.16;5028599;28;20048;-85
2023/05/07 03:01:48;;;;;;;29.98;20.58;;;;;;;18.04;50.91;93387.72;5027698;28;20045;-86
2023/05/07 03:04:13;;;;;;;34.45;21.48;;;;;;;18.03;50.88;93397.19;5010637;28;20041;-86
2023/05/07 03:06:38;;;;;;;25.40;21.48;;;;;;;18.00;51.08;93395.47;5027238;28;20381;-85
2023/05/07 03:09:04;;;;;;;30.67;21.70;;;;;;;18.02;50.86;93390.97;5039029;28;20058;-85
2023/05/07 03:11:30;;;;;;;29.63;22.58;;;;;;;18.02;51.01;93396.44;5027151;28;20046;-85
2023/05/07 03:13:55;;;;;;;32.25;22.52;;;;;;;18.01;51.00;93405.88;5026555;28;20508;-86
2023/05/07 03:16:21;;;;;;;31.88;22.67;;;;;;;17.99;50.79;93394.72;5028211;28;20584;-85
2023/05/07 03:18:46;;;;;;;33.30;25.00;;;;;;;17.97;50.89;93396.50;5028254;28;20041;-85
2023/05/07 03:21:12;;;;;;;33.00;22.63;;;;;;;17.97;51.03;93391.75;5027691;28;20046;-85
2023/05/07 03:23:37;;;;;;;31.88;23.00;;;;;;;17.97;51.37;93402.69;5027184;28;20041;-85
2023/05/07 03:26:03;;;;;;;29.73;23.98;;;;;;;17.96;51.14;93398.50;5026711;28;20037;-84
2023/05/07 03:28:28;;;;;;;26.98;21.20;;;;;;;17.98;51.02;93397.94;5028004;28;20388;-85
2023/05/07 03:30:53;;;;;;;27.80;21.08;;;;;;;18.01;51.34;93399.69;5028117;28;20076;-85
2023/05/07 03:33:19;;;;;;;26.85;20.35;;;;;;;17.97;51.09;93399.22;5010112;28;20042;-85
2023/05/07 03:35:44;;;;;;;28.48;21.40;;;;;;;17.94;51.08;93400.97;5010007;28;20423;-84
2023/05/07 03:38:11;;;;;;;27.95;20.83;;;;;;;17.95;51.12;93399.75;5028212;28;20041;-85
2023/05/07 03:40:36;;;;;;;25.10;19.33;;;;;;;17.98;51.15;93404.16;5028521;28;20033;-85
2023/05/07 03:43:01;;;;;;;22.95;18.52;;;;;;;17.97;51.31;93407.44;5013772;28;20040;-85
2023/05/07 03:45:27;;;;;;;28.80;21.02;;;;;;;17.94;51.06;93414.66;5028580;28;20042;-85
2023/05/07 03:47:52;;;;;;;24.80;19.02;;;;;;;17.94;51.13;93411.94;5028361;28;20381;-86
2023/05/07 03:50:17;;;;;;;26.77;20.65;;;;;;;17.96;51.26;93414.91;5028089;28;20041;-85
2023/05/07 03:52:43;;;;;;;26.15;19.85;;;;;;;17.96;51.08;93409.44;5016039;28;20034;-85
2023/05/07 03:55:09;;;;;;;23.15;18.48;;;;;;;17.97;50.91;93410.88;5032133;28;20041;-86
2023/05/07 03:57:34;;;;;;;25.88;19.77;;;;;;;17.96;50.90;93411.41;5027507;28;20029;-85
2023/05/07 04:00:00;;;;;;;25.67;18.27;;;;;;;17.98;50.93;93411.63;5007021;28;20034;-86
2023/05/07 04:02:26;;;;;;;24.40;17.95;;;;;;;17.98;51.32;93412.38;5006294;28;20045;-85
2023/05/07 04:04:51;;;;;;;20.98;17.20;;;;;;;17.98;51.18;93417.09;5026645;28;20531;-85
2023/05/07 04:07:17;;;;;;;24.90;18.50;;;;;;;17.98;50.88;93412.38;5008783;28;20042;-85
2023/05/07 04:09:42;;;;;;;24.63;18.80;;;;;;;17.97;51.09;93412.91;5033524;28;20091;-85
2023/05/07 04:12:08;;;;;;;24.15;18.92;;;;;;;17.97;51.17;93416.34;5025872;28;20041;-85
2023/05/07 04:14:33;;;;;;;23.42;19.10;;;;;;;17.98;51.23;93414.38;5026977;28;20045;-84
2023/05/07 04:16:59;;;;;;;23.40;17.85;;;;;;;18.01;51.11;93418.81;5027561;28;20511;-85
2023/05/07 04:19:24;;;;;;;21.40;17.15;;;;;;;18.02;51.23;93415.59;5038958;28;20073;-85
2023/05/07 04:21:50;;;;;;;22.83;17.67;;;;;;;18.00;51.08;93423.56;5047421;28;20440;-85
2023/05/07 04:24:15;;;;;;;22.45;17.77;;;;;;;18.04;50.98;93409.59;5045363;28;20487;-85
2023/05/07 04:26:41;;;;;;;22.30;17.40;;;;;;;18.03;50.92;93417.06;5029431;28;20033;-85
2023/05/07 04:29:06;;;;;;;21.95;17.20;;;;;;;18.01;50.78;93408.63;5029693;28;20045;-85
2023/05/07 04:31:32;;;;;;;23.13;17.02;;;;;;;18.00;51.31;93409.88;5008995;28;20045;-85
2023/05/07 04:33:57;;;;;;;22.63;17.02;;;;;;;18.01;51.41;93413.34;5035363;28;20233;-85
2023/05/07 04:36:22;;;;;;;22.85;17.92;;;;;;;18.01;50.67;93418.81;5043983;28;20506;-85
2023/05/07 04:38:48;;;;;;;24.27;18.23;;;;;;;18.03;51.13;93422.53;5009544;28;20053;-85
2023/05/07 04:41:14;;;;;;;20.17;15.57;;;;;;;18.03;51.22;93425.28;5026770;28;20041;-86
2023/05/07 04:43:40;;;;;;;22.23;16.92;;;;;;;18.01;51.20;93424.28;5031118;28;20091;-86
2023/05/07 04:46:05;;;;;;;22.35;16.38;;;;;;;18.01;51.07;93427.03;5046444;28;20484;-85
2023/05/07 04:48:30;;;;;;;20.15;16.73;;;;;;;17.98;50.85;93426.06;5027999;28;20049;-85
2023/05/07 04:50:56;;;;;;;21.00;16.38;;;;;;;18.00;51.16;93437.22;5046914;28;20056;-85
2023/05/07 04:53:21;;;;;;;20.90;15.73;;;;;;;18.04;50.89;93442.44;5022876;28;20037;-86
2023/05/07 04:55:47;;;;;;;22.65;17.10;;;;;;;18.03;50.95;93441.69;5024621;28;20404;-86
2023/05/07 04:58:12;;;;;;;20.42;16.55;;;;;;;18.01;51.23;93435.97;5026942;28;20034;-85
2023/05/07 05:00:39;;;;;;;21.35;16.02;;;;;;;18.03;51.17;93440.94;5029042;28;20044;-86
2023/05/07 05:03:05;;;;;;;22.33;16.15;;;;;;;18.03;50.87;93454.63;5029257;28;20046;-85
2023/05/07 05:05:30;;;;;;;19.38;15.75;;;;;;;18.02;50.88;93453.13;5028114;28;20064;-85
2023/05/07 05:07:56;;;;;;;21.50;16.48;;;;;;;18.01;50.78;93446.91;5027491;28;20049;-85
2023/05/07 05:10:21;;;;;;;20.02;16.05;;;;;;;18.07;51.20;93452.38;5026464;28;20045;-85
2023/05/07 05:12:47;;;;;;;20.77;16.38;;;;;;;18.04;50.89;93462.31;5025617;28;20034;-86
2023/05/07 05:15:12;;;;;;;21.48;16.73;;;;;;;18.06;50.85;93465.28;5030255;28;20033;-85
2023/05/07 05:17:38;;;;;;;20.45;15.88;;;;;;;18.06;50.85;93461.81;5008051;28;20403;-86
2023/05/07 05:20:05;;;;;;;17.50;14.32;;;;;;;18.05;51.26;93461.06;5025349;28;20049;-85
2023/05/07 05:22:31;;;;;;;19.50;14.57;;;;;;;18.05;51.29;93460.31;5025279;28;20041;-86
2023/05/07 05:24:58;;;;;;;20.83;15.52;;;;;;;18.05;51.06;93460.31;5026541;28;20469;-84
2023/05/07 05:27:24;;;;;;;18.50;14.90;;;;;;;18.09;50.70;93466.28;5008300;28;20034;-85
2023/05/07 05:29:49;;;;;;;18.50;15.43;;;;;;;18.05;50.89;93463.81;5025034;28;20049;-85
2023/05/07 05:32:15;;;;;;;20.88;15.80;;;;;;;18.07;50.92;93474.25;5024267;28;20045;-86
2023/05/07 05:34:40;;;;;;;20.13;15.38;;;;;;;18.09;50.87;93467.03;5026548;28;20387;-85
2023/05/07 05:37:05;;;;;;;17.27;13.73;;;;;;;18.10;50.67;93462.28;5024370;28;20042;-86
2023/05/07 05:39:31;;;;;;;18.85;15.07;;;;;;;18.09;50.99;93460.81;5026432;28;20049;-85
2023/05/07 05:41:56;;;;;;;18.00;14.20;;;;;;;18.10;51.11;93462.28;5025336;28;20259;-86
2023/05/07 05:44:22;;;;;;;19.38;15.43;;;;;;;18.10;51.08;93459.56;5032755;28;20372;-84
2023/05/07 05:46:49;;;;;;;19.17;15.48;;;;;;;18.12;50.95;93459.78;5041860;28;20119;-85
2023/05/07 05:49:15;;;;;;;20.38;14.82;;;;;;;18.10;50.96;93460.31;5007997;28;20412;-85
2023/05/07 05:51:40;;;;;;;18.52;14.50;;;;;;;18.14;51.15;93466.25;5025384;28;20029;-86
2023/05/07 05:54:05;;;;;;;19.13;14.88;;;;;;;18.15;50.71;93458.78;5007971;28;20277;-85
2023/05/07 05:56:31;;;;;;;20.30;14.90;;;;;;;18.14;51.14;93460.03;4987825;28;20156;-86
2023/05/07 05:58:57;;;;;;;21.75;14.10;;;;;;;18.17;50.91;93463.75;5025496;28;20041;-85
2023/05/07 06:01:22;;;;;;;17.95;13.70;;;;;;;18.20;50.77;93455.25;5026599;28;20037;-85
2023/05/07 06:03:48;;;;;;;17.40;14.20;;;;;;;18.19;50.63;93450.31;5029830;28;20350;-85
2023/05/07 06:06:14;;;;;;;17.35;14.55;;;;;;;18.20;51.02;93454.50;5028763;28;20041;-86
2023/05/07 06:08:39;;;;;;;17.92;14.35;;;;;;;18.20;50.70;93454.50;5013640;28;20411;-85
2023/05/07 06:11:05;;;;;;;19.65;14.93;;;;;;;18.20;50.64;93457.25;5049332;28;20496;-85
2023/05/07 06:13:30;;;;;;;18.98;14.20;;;;;;;18.20;50.75;93452.50;5047772;28;20037;-85
2023/05/07 06:15:56;;;;;;;19.52;15.10;;;;;;;18.21;50.78;93456.72;5032920;28;20034;-85
2023/05/07 06:18:21;;;;;;;17.83;14.88;;;;;;;18.24;51.15;93463.19;5028312;28;20527;-85
2023/05/07 06:20:46;;;;;;;18.20;14.80;;;;;;;18.24;50.70;93460.44;5046902;28;20041;-86
2023/05/07 06:23:12;;;;;;;15.50;12.80;;;;;;;18.28;50.68;93466.41;5047674;28;20091;-85
2023/05/07 06:25:37;;;;;;;16.70;13.70;;;;;;;18.27;50.88;93464.91;5047345;28;20037;-86
2023/05/07 06:28:03;;;;;;;17.48;13.82;;;;;;;18.29;50.78;93468.63;5041906;28;20033;-85
2023/05/07 06:30:28;;;;;;;14.85;12.48;;;;;;;18.29;50.62;93467.88;5011159;28;20048;-85
2023/05/07 06:32:54;;;;;;;16.20;12.73;;;;;;;18.29;50.34;93468.63;5029471;28;20532;-85
2023/05/07 06:35:20;;;;;;;14.52;12.10;;;;;;;18.30;50.84;93467.38;5010214;28;20045;-85
2023/05/07 06:37:45;;;;;;;17.40;14.02;;;;;;;18.35;50.67;93463.88;5010871;28;20875;-85
2023/05/07 06:40:11;;;;;;;15.07;12.23;;;;;;;18.34;50.62;93458.91;5010976;28;20033;-85
2023/05/07 06:42:37;;;;;;;15.07;12.35;;;;;;;18.33;50.88;93458.16;5010730;28;20049;-85
2023/05/07 06:45:02;;;;;;;13.00;10.93;;;;;;;18.34;50.70;93469.84;5027995;28;20042;-85
2023/05/07 06:47:28;;;;;;;14.50;11.48;;;;;;;18.35;50.69;93463.13;5010460;28;20088;-85
2023/05/07 06:49:53;;;;;;;14.88;11.80;;;;;;;18.36;50.52;93470.81;4994816;28;20034;-85
2023/05/07 06:52:19;;;;;;;13.98;11.45;;;;;;;18.37;50.72;93458.63;5007472;28;20068;-85
2023/05/07 06:54:44;;;;;;;16.92;13.15;;;;;;;18.39;50.45;93466.31;4994297;28;20507;-86
2023/05/07 06:57:09;;;;;;;15.50;11.90;;;;;;;18.40;50.90;93473.28;5036457;28;20115;-85
2023/05/07 06:59:35;;;;;;;13.93;10.88;;;;;;;18.39;50.63;93478.03;5030527;28;20052;-85
2023/05/07 07:02:03;;;;;;;14.73;11.48;;;;;;;18.42;50.54;93476.22;5047500;28;20435;-85
2023/05/07 07:04:29;;;;;;;16.35;12.10;;;;;;;18.41;50.39;93477.47;5030238;28;20056;-86
2023/05/07 07:06:56;;;;;;;13.52;10.55;;;;;;;18.43;50.74;93477.72;5004196;28;20120;-86
2023/05/07 07:09:21;;;;;;;14.35;11.18;;;;;;;18.45;50.55;93475.22;5030702;28;20116;-85
2023/05/07 07:11:47;;;;;;;14.07;10.75;;;;;;;18.44;50.49;93468.25;5046212;28;20033;-86
2023/05/07 07:14:12;;;;;;;12.63;10.35;;;;;;;18.44;50.56;93474.47;5012856;28;20037;-85
2023/05/07 07:16:38;;;;;;;13.15;10.52;;;;;;;18.45;50.27;93475.97;4994453;28;20018;-85
2023/05/07 07:19:03;;;;;;;11.55;10.35;;;;;;;18.46;50.48;93479.44;5027027;28;20042;-85
2023/05/07 07:21:30;;;;;;;13.77;10.85;;;;;;;18.47;50.26;93476.19;5029755;28;20258;-86
2023/05/07 07:23:55;;;;;;;11.15;9.45;;;;;;;18.47;50.63;93467.25;5031130;28;20044;-86
2023/05/07 07:26:21;;;;;;;10.65;9.23;;;;;;;18.48;50.39;93463.25;5028956;28;20498;-85
2023/05/07 07:28:46;;;;;;;14.55;11.27;;;;;;;18.46;50.13;93474.72;5030476;28;20040;-85
2023/05/07 07:31:12;;;;;;;11.75;10.18;;;;;;;18.48;50.10;93480.41;5041662;28;20042;-85
2023/05/07 07:33:37;;;;;;;13.40;11.02;;;;;;;18.48;50.41;93485.91;5026341;28;20046;-85
2023/05/07 07:36:05;;;;;;;11.30;9.40;;;;;;;18.47;50.33;93483.66;5026145;28;20041;-84
2023/05/07 07:38:30;;;;;;;11.85;9.55;;;;;;;18.47;50.64;93484.41;5008431;28;20037;-86
2023/05/07 07:40:56;;;;;;;12.50;10.50;;;;;;;18.48;50.45;93488.63;5013498;28;20029;-85
2023/05/07 07:43:21;;;;;;;12.57;9.68;;;;;;;18.51;50.61;93486.88;5004774;28;20050;-85
2023/05/07 07:45:46;;;;;;;12.30;10.07;;;;;;;18.49;50.25;93486.63;4993660;28;20053;-86
2023/05/07 07:48:12;;;;;;;13.15;10.07;;;;;;;18.49;50.37;93497.59;5021116;28;20403;-85
2023/05/07 07:50:38;;;;;;;12.10;10.38;;;;;;;18.50;50.33;93491.59;5025793;28;20090;-85
2023/05/07 07:53:03;;;;;;;12.18;10.15;;;;;;;18.49;50.54;93492.84;5006261;28;20140;-85
2023/05/07 07:55:30;;;;;;;10.43;8.73;;;;;;;18.52;50.35;93493.09;5000537;28;20321;-85
2023/05/07 07:57:56;;;;;;;11.57;9.57;;;;;;;18.51;50.13;93492.34;4994418;28;20034;-85
2023/05/07 08:00:21;;;;;;;12.65;10.13;;;;;;;18.53;50.38;93489.84;4993028;28;20044;-85
2023/05/07 08:02:47;;;;;;;11.48;9.30;;;;;;;18.53;50.43;93486.38;5009487;28;20037;-86
2023/05/07 08:05:12;;;;;;;11.85;9.90;;;;;;;18.53;50.48;93489.84;5025805;28;20048;-85
2023/05/07 08:07:38;;;;;;;12.95;9.70;;;;;;;18.53;50.47;93491.84;5025391;28;20041;-86
2023/05/07 08:10:04;;;;;;;13.02;10.20;;;;;;;18.50;50.26;93488.88;5009085;28;20029;-85
2023/05/07 08:12:29;;;;;;;10.13;9.10;;;;;;;18.51;50.51;93495.09;5025969;28;20041;-86
2023/05/07 08:14:54;;;;;;;13.30;9.63;;;;;;;18.49;50.27;93503.81;5010032;28;20040;-85
2023/05/07 08:17:22;;;;;;;12.13;9.57;;;;;;;18.50;50.22;93510.78;5008304;28;20042;-85
2023/05/07 08:19:47;;;;;;;10.30;8.80;;;;;;;18.51;50.48;93503.31;4992921;28;20400;-85
2023/05/07 08:22:13;;;;;;;10.85;8.95;;;;;;;18.52;50.45;93496.56;5008558;28;20045;-86
2023/05/07 08:24:38;;;;;;;12.52;9.32;;;;;;;18.52;50.38;93496.56;5011486;28;20037;-85
2023/05/07 08:27:03;;;;;;;11.63;9.93;;;;;;;18.52;50.24;93502.06;5044965;28;20368;-85
2023/05/07 08:29:32;;;;;;;12.52;9.38;;;;;;;18.53;50.36;93508.28;5029263;28;20470;-85
2023/05/07 08:31:57;;;;;;;10.93;8.35;;;;;;;18.52;50.60;93507.53;5021709;28;20045;-85
2023/05/07 08:34:22;;;;;;;12.15;9.57;;;;;;;18.52;50.51;93502.06;4992358;28;20045;-85
2023/05/07 08:36:48;;;;;;;11.05;9.52;;;;;;;18.54;50.34;93504.28;5009508;28;20048;-85
2023/05/07 08:39:16;;;;;;;10.90;8.90;;;;;;;18.53;50.53;93503.53;5008190;28;20034;-85
2023/05/07 08:41:44;;;;;;;10.35;9.25;;;;;;;18.53;50.49;93506.28;5009767;28;20099;-85
2023/05/07 08:44:11;;;;;;;11.27;9.75;;;;;;;18.52;50.69;93509.53;4992433;28;20061;-86
2023/05/07 08:46:37;;;;;;;11.07;9.43;;;;;;;18.52;50.23;93501.31;5026151;28;20150;-85
2023/05/07 08:49:02;;;;;;;9.68;8.15;;;;;;;18.53;50.60;93500.81;5028580;28;20037;-85
2023/05/07 08:51:28;;;;;;;11.05;8.90;;;;;;;18.53;50.29;93503.53;5025302;28;20037;-85
2023/05/07 08:53:53;;;;;;;10.15;9.05;;;;;;;18.53;50.58;93506.28;5008997;28;20476;-86
2023/05/07 08:56:20;;;;;;;10.90;8.93;;;;;;;18.53;50.22;93516.47;4991629;28;20408;-85
2023/05/07 08:58:45;;;;;;;10.05;8.55;;;;;;;18.54;50.47;93518.72;5023190;28;20652;-85
2023/05/07 09:01:14;;;;;;;10.38;9.25;;;;;;;18.56;50.41;93515.47;5044733;28;20390;-85
2023/05/07 09:03:40;;;;;;;11.77;8.60;;;;;;;18.53;50.40;93509.00;5006343;28;20049;-85
2023/05/07 09:06:05;;;;;;;10.68;9.20;;;;;;;18.55;50.24;93512.00;5020759;28;20057;-85
2023/05/07 09:08:32;;;;;;;12.05;9.13;;;;;;;18.53;50.16;93521.97;5013288;28;20037;-85
2023/05/07 09:10:57;;;;;;;10.65;8.88;;;;;;;18.54;50.61;93515.97;5003444;28;20044;-84
2023/05/07 09:13:23;;;;;;;10.48;8.88;;;;;;;18.55;50.23;93522.94;5027926;28;20466;-85
2023/05/07 09:15:48;;;;;;;10.13;8.35;;;;;;;18.55;50.28;93519.47;5012133;28;20377;-85
2023/05/07 09:18:14;;;;;;;12.25;9.27;;;;;;;18.55;50.60;93520.19;5027288;28;20458;-85
2023/05/07 09:20:40;;;;;;;9.90;8.60;;;;;;;18.56;50.47;93518.22;5042292;28;20040;-86
2023/05/07 09:23:07;;;;;;;13.93;9.10;;;;;;;18.54;50.40;93526.19;5028397;28;20098;-85
2023/05/07 09:25:32;;;;;;;9.45;7.93;;;;;;;18.54;50.48;93517.97;5011440;28;20158;-85
2023/05/07 09:27:59;;;;;;;9.95;7.82;;;;;;;18.54;50.37;93513.25;5029015;28;20373;-86
2023/05/07 09:30:28;;;;;;;10.73;8.75;;;;;;;18.54;50.40;93504.28;5044527;28;20503;-85
2023/05/07 09:32:54;;;;;;;10.43;8.98;;;;;;;18.53;50.11;93509.00;5032935;28;20064;-85
2023/05/07 09:35:21;;;;;;;9.30;8.18;;;;;;;18.55;50.60;93516.72;5014976;28;20037;-86
2023/05/07 09:37:47;;;;;;;11.73;8.90;;;;;;;18.55;50.11;93511.25;5001703;28;20030;-85
2023/05/07 09:40:22;;;;;;;9.98;8.63;;;;;;;18.54;50.20;93517.97;4995645;28;20370;-85
2023/05/07 09:42:49;;;;;;;10.93;9.05;;;;;;;18.55;50.45;93517.47;5012681;28;20116;-84
2023/05/07 09:45:14;;;;;;;11.73;8.70;;;;;;;18.55;50.38;93522.19;5011710;28;20045;-85
2023/05/07 09:47:40;;;;;;;10.25;8.45;;;;;;;18.56;50.40;93520.94;5013599;28;20037;-85
2023/05/07 09:50:05;;;;;;;9.82;8.27;;;;;;;18.55;50.21;93524.94;5031857;28;20408;-85
2023/05/07 09:52:33;;;;;;;9.32;8.13;;;;;;;18.56;50.74;93518.22;5020544;28;20566;-86
2023/05/07 09:54:59;;;;;;;9.90;8.30;;;;;;;18.55;50.10;93520.19;5012449;28;20105;-85
2023/05/07 09:57:24;;;;;;;9.48;8.48;;;;;;;18.55;50.29;93522.19;5027802;28;20036;-85
2023/05/07 09:59:50;;;;;;;9.95;8.57;;;;;;;18.56;50.30;93526.41;5012151;28;20041;-85
2023/05/07 10:02:15;;;;;;;10.60;9.05;;;;;;;18.55;50.29;93514.72;5010545;28;20045;-85
2023/05/07 10:04:40;;;;;;;9.90;8.40;;;;;;;18.56;50.51;93518.94;5012556;28;20033;-85
2023/05/07 10:07:06;;;;;;;10.15;7.78;;;;;;;18.55;50.59;93520.19;5011611;28;20131;-85
2023/05/07 10:09:31;;;;;;;10.85;7.95;;;;;;;18.57;50.52;93522.44;4997119;28;20041;-84
2023/05/07 10:11:57;;;;;;;10.02;8.45;;;;;;;18.55;50.35;93525.69;5028647;28;20447;-85
2023/05/07 10:14:22;;;;;;;9.77;7.95;;;;;;;18.55;50.40;93527.66;5011271;28;20045;-85
2023/05/07 10:16:48;;;;;;;11.63;9.10;;;;;;;18.57;50.01;93528.66;5011913;28;20107;-86
2023/05/07 10:19:13;;;;;;;10.70;8.02;;;;;;;18.56;50.61;93518.22;5010774;28;20479;-84
2023/05/07 10:21:39;;;;;;;9.80;8.07;;;;;;;18.56;50.36;93518.22;5024063;28;20052;-85
2023/05/07 10:24:06;;;;;;;9.75;7.80;;;;;;;18.54;50.51;93509.75;5031200;28;20179;-85
2023/05/07 10:26:32;;;;;;;8.40;7.18;;;;;;;18.56;50.31;93513.47;5031341;28;20044;-85
2023/05/07 10:29:17;;;;;;;10.07;8.57;;;;;;;18.57;50.15;93516.97;5031344;28;20038;-85
2023/05/07 10:32:04;;;;;;;9.48;8.10;;;;;;;18.55;50.48;93509.25;5030694;28;20033;-85
2023/05/07 10:34:34;;;;;;;8.65;7.38;;;;;;;18.57;50.47;93514.22;4993629;28;20188;-85
2023/05/07 10:37:00;;;;;;;10.27;8.02;;;;;;;18.57;50.47;93514.22;5007549;28;20068;-85
2023/05/07 10:39:25;;;;;;;10.07;7.88;;;;;;;18.56;50.69;93510.00;5026411;28;20437;-85
2023/05/07 10:41:51;;;;;;;9.10;7.95;;;;;;;18.55;50.69;93503.78;5028141;28;20034;-84
2023/05/07 10:44:28;;;;;;;8.23;7.15;;;;;;;18.55;50.55;93500.28;5010425;28;20048;-85
2023/05/07 10:47:16;;;;;;;10.35;7.85;;;;;;;18.56;50.59;93499.03;5026650;28;20057;-86
2023/05/07 10:49:41;;;;;;;8.35;6.53;;;;;;;18.57;50.80;93498.53;5010961;28;20072;-85
2023/05/07 10:52:14;;;;;;;8.30;7.20;;;;;;;18.55;50.41;93490.09;5028304;28;20037;-86
2023/05/07 10:54:39;;;;;;;10.23;7.70;;;;;;;18.56;50.58;93493.56;5027718;28;20399;-85
2023/05/07 10:57:43;;;;;;;8.45;7.53;;;;;;;18.55;50.33;93497.56;5032662;28;20112;-85
2023/05/07 11:00:29;;;;;;;10.02;7.57;;;;;;;18.55;50.39;93506.50;4934257;28;20039;-85
2023/05/07 11:03:00;;;;;;;10.13;7.55;;;;;;;18.55;50.70;93498.31;4950766;28;20039;-85
2023/05/07 11:05:27;;;;;;;8.88;7.43;;;;;;;18.54;50.40;93491.34;4950276;28;20527;-85
2023/05/07 11:07:55;;;;;;;8.95;7.97;;;;;;;18.56;50.63;93496.31;4950770;28;20221;-84
2023/05/07 11:10:21;;;;;;;8.50;7.10;;;;;;;18.55;50.22;93500.28;4950315;28;20580;-85
2023/05/07 11:12:50;;;;;;;8.80;7.20;;;;;;;18.56;50.53;93496.31;4935163;28;20055;-85
2023/05/07 11:15:33;;;;;;;8.13;6.55;;;;;;;18.54;50.48;93496.06;4949926;28;20046;-85